Shubenacadie, Canada
Current Conditions -  °F | °C
As of 2:00 AM on Sunday 26 Oct 2014 (Local Time) from CYHZ Reporting Station
Broken Clouds Broken Clouds  
Wind Chill: 41°   Ceiling: 600
Heat Index: 45°   Visibility: 15mi
Dew Point: 43°   Wind: 7mph
Humidity: 93%   Direction: 290°WNW
Pressure: 29.5"   Gusts: NA
Location:  45.08°N, 63.4°W
Report Text: CYHZ 260500Z 29006KT 15SM BKN006 BKN035 07/06 A2950 RMK SF6SC1 SLP993
Loading
Personal Weather Stations






























Interactive Weather Map
Tropical Storm Tracking
New forecast layout! Learn more

10-Day Weather Forecast

Advertisements
Track Severe Weather on mobile